sensor_id;sensor_type;location;lat;lon;timestamp;P1;durP1;ratioP1;P2;durP2;ratioP2
28529;SDS011;15737;49.760;6.632;2023-06-22T00:01:52;2.80;;;2.60;;
28529;SDS011;15737;49.760;6.632;2023-06-22T00:04:17;4.03;;;3.60;;
28529;SDS011;15737;49.760;6.632;2023-06-22T00:06:43;6.47;;;3.97;;
28529;SDS011;15737;49.760;6.632;2023-06-22T00:09:08;6.75;;;4.20;;
28529;SDS011;15737;49.760;6.632;2023-06-22T00:11:35;4.32;;;4.00;;
28529;SDS011;15737;49.760;6.632;2023-06-22T00:14:04;5.13;;;3.65;;
28529;SDS011;15737;49.760;6.632;2023-06-22T00:16:31;5.65;;;4.82;;
28529;SDS011;15737;49.760;6.632;2023-06-22T00:18:56;4.68;;;3.75;;
28529;SDS011;15737;49.760;6.632;2023-06-22T00:21:25;5.13;;;4.63;;
28529;SDS011;15737;49.760;6.632;2023-06-22T00:23:51;5.45;;;4.70;;
28529;SDS011;15737;49.760;6.632;2023-06-22T00:26:17;3.88;;;3.55;;
28529;SDS011;15737;49.760;6.632;2023-06-22T00:28:42;6.85;;;4.40;;
28529;SDS011;15737;49.760;6.632;2023-06-22T00:31:08;4.75;;;3.90;;
28529;SDS011;15737;49.760;6.632;2023-06-22T00:33:34;4.10;;;3.58;;
28529;SDS011;15737;49.760;6.632;2023-06-22T00:35:59;5.05;;;4.32;;
28529;SDS011;15737;49.760;6.632;2023-06-22T00:38:25;4.93;;;4.38;;
28529;SDS011;15737;49.760;6.632;2023-06-22T00:40:51;4.78;;;4.35;;
28529;SDS011;15737;49.760;6.632;2023-06-22T00:43:16;5.40;;;3.75;;
28529;SDS011;15737;49.760;6.632;2023-06-22T00:45:42;4.47;;;3.78;;
28529;SDS011;15737;49.760;6.632;2023-06-22T00:48:08;5.13;;;4.25;;
28529;SDS011;15737;49.760;6.632;2023-06-22T00:50:34;5.00;;;4.22;;
28529;SDS011;15737;49.760;6.632;2023-06-22T00:53:09;4.88;;;4.35;;
28529;SDS011;15737;49.760;6.632;2023-06-22T00:55:36;4.05;;;3.65;;
28529;SDS011;15737;49.760;6.632;2023-06-22T00:58:12;4.50;;;3.53;;
28529;SDS011;15737;49.760;6.632;2023-06-22T01:00:39;5.75;;;3.53;;
28529;SDS011;15737;49.760;6.632;2023-06-22T01:03:05;3.42;;;3.13;;
28529;SDS011;15737;49.760;6.632;2023-06-22T01:05:34;5.68;;;4.30;;
28529;SDS011;15737;49.760;6.632;2023-06-22T01:08:03;4.80;;;3.97;;
28529;SDS011;15737;49.760;6.632;2023-06-22T01:13:43;6.15;;;4.38;;
28529;SDS011;15737;49.760;6.632;2023-06-22T01:16:17;4.88;;;3.15;;
28529;SDS011;15737;49.760;6.632;2023-06-22T01:18:48;5.10;;;4.43;;
28529;SDS011;15737;49.760;6.632;2023-06-22T01:21:17;4.47;;;3.55;;
28529;SDS011;15737;49.760;6.632;2023-06-22T01:29:46;5.15;;;3.97;;
28529;SDS011;15737;49.760;6.632;2023-06-22T01:32:17;4.20;;;3.80;;
28529;SDS011;15737;49.760;6.632;2023-06-22T01:34:44;6.00;;;4.70;;
28529;SDS011;15737;49.760;6.632;2023-06-22T01:37:11;5.03;;;4.20;;
28529;SDS011;15737;49.760;6.632;2023-06-22T01:39:38;5.05;;;4.22;;
28529;SDS011;15737;49.760;6.632;2023-06-22T01:42:04;5.60;;;4.18;;
28529;SDS011;15737;49.760;6.632;2023-06-22T01:44:31;4.65;;;4.00;;
28529;SDS011;15737;49.760;6.632;2023-06-22T01:46:57;5.65;;;4.68;;
28529;SDS011;15737;49.760;6.632;2023-06-22T01:49:23;7.90;;;5.05;;
28529;SDS011;15737;49.760;6.632;2023-06-22T01:51:49;4.13;;;3.72;;
28529;SDS011;15737;49.760;6.632;2023-06-22T01:54:15;4.25;;;3.75;;
28529;SDS011;15737;49.760;6.632;2023-06-22T01:56:40;5.53;;;4.38;;
28529;SDS011;15737;49.760;6.632;2023-06-22T02:02:20;6.43;;;4.82;;
28529;SDS011;15737;49.760;6.632;2023-06-22T02:04:54;4.45;;;4.03;;
28529;SDS011;15737;49.760;6.632;2023-06-22T02:07:31;5.45;;;4.30;;
28529;SDS011;15737;49.760;6.632;2023-06-22T02:10:00;4.47;;;3.90;;
28529;SDS011;15737;49.760;6.632;2023-06-22T02:12:28;4.95;;;4.40;;
28529;SDS011;15737;49.760;6.632;2023-06-22T02:14:55;4.90;;;3.90;;
28529;SDS011;15737;49.760;6.632;2023-06-22T02:17:22;5.88;;;4.93;;
28529;SDS011;15737;49.760;6.632;2023-06-22T02:19:49;4.15;;;3.80;;
28529;SDS011;15737;49.760;6.632;2023-06-22T02:22:14;5.20;;;4.65;;
28529;SDS011;15737;49.760;6.632;2023-06-22T02:24:40;5.22;;;4.35;;
28529;SDS011;15737;49.760;6.632;2023-06-22T02:27:05;5.95;;;4.65;;
28529;SDS011;15737;49.760;6.632;2023-06-22T02:29:32;5.05;;;4.10;;
28529;SDS011;15737;49.760;6.632;2023-06-22T02:31:58;4.30;;;3.90;;
28529;SDS011;15737;49.760;6.632;2023-06-22T02:34:24;3.83;;;3.53;;
28529;SDS011;15737;49.760;6.632;2023-06-22T02:36:50;4.70;;;4.30;;
28529;SDS011;15737;49.760;6.632;2023-06-22T02:39:18;4.97;;;4.45;;
28529;SDS011;15737;49.760;6.632;2023-06-22T02:41:51;6.88;;;4.22;;
28529;SDS011;15737;49.760;6.632;2023-06-22T02:44:18;4.40;;;3.83;;
28529;SDS011;15737;49.760;6.632;2023-06-22T02:46:44;5.28;;;4.78;;
28529;SDS011;15737;49.760;6.632;2023-06-22T02:49:10;3.85;;;3.42;;
28529;SDS011;15737;49.760;6.632;2023-06-22T02:51:38;4.78;;;4.28;;
28529;SDS011;15737;49.760;6.632;2023-06-22T02:54:04;4.97;;;4.40;;
28529;SDS011;15737;49.760;6.632;2023-06-22T02:56:30;4.40;;;3.95;;
28529;SDS011;15737;49.760;6.632;2023-06-22T02:58:56;4.95;;;3.88;;
28529;SDS011;15737;49.760;6.632;2023-06-22T03:01:26;4.82;;;4.32;;
28529;SDS011;15737;49.760;6.632;2023-06-22T03:03:58;4.10;;;3.80;;
28529;SDS011;15737;49.760;6.632;2023-06-22T03:06:24;5.22;;;4.22;;
28529;SDS011;15737;49.760;6.632;2023-06-22T03:08:53;4.75;;;4.30;;
28529;SDS011;15737;49.760;6.632;2023-06-22T03:11:24;4.70;;;4.30;;
28529;SDS011;15737;49.760;6.632;2023-06-22T03:13:49;6.30;;;4.68;;
28529;SDS011;15737;49.760;6.632;2023-06-22T03:16:17;5.03;;;4.18;;
28529;SDS011;15737;49.760;6.632;2023-06-22T03:18:42;7.53;;;4.82;;
28529;SDS011;15737;49.760;6.632;2023-06-22T03:21:08;4.43;;;4.03;;
28529;SDS011;15737;49.760;6.632;2023-06-22T03:23:34;5.03;;;4.45;;
28529;SDS011;15737;49.760;6.632;2023-06-22T03:25:59;5.57;;;4.57;;
28529;SDS011;15737;49.760;6.632;2023-06-22T03:28:25;4.95;;;3.97;;
28529;SDS011;15737;49.760;6.632;2023-06-22T03:30:50;5.43;;;4.15;;
28529;SDS011;15737;49.760;6.632;2023-06-22T03:33:16;5.88;;;4.63;;
28529;SDS011;15737;49.760;6.632;2023-06-22T03:35:41;4.57;;;3.90;;
28529;SDS011;15737;49.760;6.632;2023-06-22T03:38:07;5.28;;;4.10;;
28529;SDS011;15737;49.760;6.632;2023-06-22T03:40:32;5.03;;;4.50;;
28529;SDS011;15737;49.760;6.632;2023-06-22T03:42:58;4.85;;;4.22;;
28529;SDS011;15737;49.760;6.632;2023-06-22T03:45:23;5.25;;;4.55;;
28529;SDS011;15737;49.760;6.632;2023-06-22T03:47:49;4.57;;;4.18;;
28529;SDS011;15737;49.760;6.632;2023-06-22T03:50:14;5.00;;;4.47;;
28529;SDS011;15737;49.760;6.632;2023-06-22T03:52:40;6.13;;;4.50;;
28529;SDS011;15737;49.760;6.632;2023-06-22T03:55:06;5.15;;;4.18;;
28529;SDS011;15737;49.760;6.632;2023-06-22T03:57:32;5.22;;;4.60;;
28529;SDS011;15737;49.760;6.632;2023-06-22T03:59:58;6.97;;;4.88;;
28529;SDS011;15737;49.760;6.632;2023-06-22T04:02:23;5.25;;;4.57;;
28529;SDS011;15737;49.760;6.632;2023-06-22T04:04:49;5.13;;;4.22;;
28529;SDS011;15737;49.760;6.632;2023-06-22T04:07:15;6.68;;;5.22;;
28529;SDS011;15737;49.760;6.632;2023-06-22T04:09:40;6.18;;;4.20;;
28529;SDS011;15737;49.760;6.632;2023-06-22T04:12:06;5.55;;;4.10;;
28529;SDS011;15737;49.760;6.632;2023-06-22T04:14:32;5.28;;;4.15;;
28529;SDS011;15737;49.760;6.632;2023-06-22T04:17:00;8.50;;;4.70;;
28529;SDS011;15737;49.760;6.632;2023-06-22T04:19:26;4.78;;;4.13;;
28529;SDS011;15737;49.760;6.632;2023-06-22T04:21:52;4.32;;;3.75;;
28529;SDS011;15737;49.760;6.632;2023-06-22T04:24:17;6.43;;;4.95;;
28529;SDS011;15737;49.760;6.632;2023-06-22T04:26:43;5.70;;;4.63;;
28529;SDS011;15737;49.760;6.632;2023-06-22T04:29:10;6.13;;;4.80;;
28529;SDS011;15737;49.760;6.632;2023-06-22T04:31:36;6.68;;;5.05;;
28529;SDS011;15737;49.760;6.632;2023-06-22T04:34:02;5.03;;;4.50;;
28529;SDS011;15737;49.760;6.632;2023-06-22T04:36:40;4.72;;;4.07;;
28529;SDS011;15737;49.760;6.632;2023-06-22T04:39:07;8.70;;;4.72;;
28529;SDS011;15737;49.760;6.632;2023-06-22T04:41:34;5.60;;;4.95;;
28529;SDS011;15737;49.760;6.632;2023-06-22T04:44:10;6.07;;;5.20;;
28529;SDS011;15737;49.760;6.632;2023-06-22T04:46:49;5.72;;;4.03;;
28529;SDS011;15737;49.760;6.632;2023-06-22T04:49:27;5.38;;;4.47;;
28529;SDS011;15737;49.760;6.632;2023-06-22T04:52:01;4.93;;;4.22;;
28529;SDS011;15737;49.760;6.632;2023-06-22T04:54:28;3.97;;;3.55;;
28529;SDS011;15737;49.760;6.632;2023-06-22T04:56:54;4.20;;;3.80;;
28529;SDS011;15737;49.760;6.632;2023-06-22T04:59:23;4.72;;;4.20;;
28529;SDS011;15737;49.760;6.632;2023-06-22T05:01:53;4.00;;;3.58;;
28529;SDS011;15737;49.760;6.632;2023-06-22T05:04:19;4.75;;;3.85;;
28529;SDS011;15737;49.760;6.632;2023-06-22T05:06:47;4.78;;;4.38;;
28529;SDS011;15737;49.760;6.632;2023-06-22T05:09:13;5.13;;;4.07;;
28529;SDS011;15737;49.760;6.632;2023-06-22T05:11:38;4.82;;;3.30;;
28529;SDS011;15737;49.760;6.632;2023-06-22T05:14:03;5.38;;;3.47;;
28529;SDS011;15737;49.760;6.632;2023-06-22T05:16:29;5.05;;;3.63;;
28529;SDS011;15737;49.760;6.632;2023-06-22T05:18:55;37.30;;;35.50;;
28529;SDS011;15737;49.760;6.632;2023-06-22T05:21:25;23.98;;;22.75;;
28529;SDS011;15737;49.760;6.632;2023-06-22T05:23:52;7.47;;;6.78;;
28529;SDS011;15737;49.760;6.632;2023-06-22T05:26:19;16.13;;;15.27;;
28529;SDS011;15737;49.760;6.632;2023-06-22T05:28:45;8.13;;;7.47;;
28529;SDS011;15737;49.760;6.632;2023-06-22T05:31:12;4.32;;;3.92;;
28529;SDS011;15737;49.760;6.632;2023-06-22T05:33:38;5.40;;;5.00;;
28529;SDS011;15737;49.760;6.632;2023-06-22T05:36:04;5.68;;;5.28;;
28529;SDS011;15737;49.760;6.632;2023-06-22T05:38:30;5.93;;;5.30;;
28529;SDS011;15737;49.760;6.632;2023-06-22T05:40:56;12.45;;;11.55;;
28529;SDS011;15737;49.760;6.632;2023-06-22T05:43:21;9.85;;;9.15;;
28529;SDS011;15737;49.760;6.632;2023-06-22T05:45:47;9.13;;;8.45;;
28529;SDS011;15737;49.760;6.632;2023-06-22T05:48:12;43.33;;;41.15;;
28529;SDS011;15737;49.760;6.632;2023-06-22T05:50:38;76.47;;;72.80;;
28529;SDS011;15737;49.760;6.632;2023-06-22T05:53:07;97.78;;;93.07;;
28529;SDS011;15737;49.760;6.632;2023-06-22T05:55:33;119.30;;;113.75;;
28529;SDS011;15737;49.760;6.632;2023-06-22T05:57:59;116.43;;;110.97;;
28529;SDS011;15737;49.760;6.632;2023-06-22T06:00:24;104.32;;;99.50;;
28529;SDS011;15737;49.760;6.632;2023-06-22T06:02:50;109.25;;;104.07;;
28529;SDS011;15737;49.760;6.632;2023-06-22T06:05:15;120.90;;;114.85;;
28529;SDS011;15737;49.760;6.632;2023-06-22T06:07:44;108.55;;;103.43;;
28529;SDS011;15737;49.760;6.632;2023-06-22T06:10:19;106.15;;;101.05;;
28529;SDS011;15737;49.760;6.632;2023-06-22T06:12:45;115.63;;;109.95;;
28529;SDS011;15737;49.760;6.632;2023-06-22T06:15:10;153.48;;;146.35;;
28529;SDS011;15737;49.760;6.632;2023-06-22T06:17:39;138.40;;;131.63;;
28529;SDS011;15737;49.760;6.632;2023-06-22T06:20:11;141.38;;;134.57;;
28529;SDS011;15737;49.760;6.632;2023-06-22T06:22:37;240.05;;;227.80;;
28529;SDS011;15737;49.760;6.632;2023-06-22T06:25:02;244.40;;;232.68;;
28529;SDS011;15737;49.760;6.632;2023-06-22T06:27:29;264.65;;;251.85;;
28529;SDS011;15737;49.760;6.632;2023-06-22T06:29:55;236.68;;;225.23;;
28529;SDS011;15737;49.760;6.632;2023-06-22T06:32:22;93.53;;;89.00;;
28529;SDS011;15737;49.760;6.632;2023-06-22T06:35:05;33.90;;;32.22;;
28529;SDS011;15737;49.760;6.632;2023-06-22T06:37:42;20.52;;;19.35;;
28529;SDS011;15737;49.760;6.632;2023-06-22T06:40:09;4.57;;;4.18;;
28529;SDS011;15737;49.760;6.632;2023-06-22T06:42:41;3.85;;;3.55;;
28529;SDS011;15737;49.760;6.632;2023-06-22T06:45:12;3.85;;;3.10;;
28529;SDS011;15737;49.760;6.632;2023-06-22T06:47:59;3.72;;;3.22;;
28529;SDS011;15737;49.760;6.632;2023-06-22T06:50:24;3.53;;;3.22;;
28529;SDS011;15737;49.760;6.632;2023-06-22T06:52:50;3.78;;;3.40;;
28529;SDS011;15737;49.760;6.632;2023-06-22T06:55:16;4.18;;;3.30;;
28529;SDS011;15737;49.760;6.632;2023-06-22T06:57:41;3.88;;;3.58;;
28529;SDS011;15737;49.760;6.632;2023-06-22T07:00:08;3.53;;;3.08;;
28529;SDS011;15737;49.760;6.632;2023-06-22T07:02:40;4.10;;;3.70;;
28529;SDS011;15737;49.760;6.632;2023-06-22T07:05:07;4.25;;;3.28;;
28529;SDS011;15737;49.760;6.632;2023-06-22T07:07:50;3.72;;;3.40;;
28529;SDS011;15737;49.760;6.632;2023-06-22T07:10:21;3.22;;;2.90;;
28529;SDS011;15737;49.760;6.632;2023-06-22T07:12:47;4.72;;;3.50;;
28529;SDS011;15737;49.760;6.632;2023-06-22T07:15:13;3.80;;;3.42;;
28529;SDS011;15737;49.760;6.632;2023-06-22T07:17:39;3.75;;;3.38;;
28529;SDS011;15737;49.760;6.632;2023-06-22T07:20:08;3.58;;;3.00;;
28529;SDS011;15737;49.760;6.632;2023-06-22T07:22:35;3.10;;;2.60;;
28529;SDS011;15737;49.760;6.632;2023-06-22T07:25:01;3.75;;;3.42;;
28529;SDS011;15737;49.760;6.632;2023-06-22T07:27:33;3.65;;;3.35;;
28529;SDS011;15737;49.760;6.632;2023-06-22T07:30:03;4.13;;;3.70;;
28529;SDS011;15737;49.760;6.632;2023-06-22T07:32:29;4.47;;;3.38;;
28529;SDS011;15737;49.760;6.632;2023-06-22T07:34:55;5.35;;;3.97;;
28529;SDS011;15737;49.760;6.632;2023-06-22T07:37:20;4.95;;;4.30;;
28529;SDS011;15737;49.760;6.632;2023-06-22T07:39:46;4.05;;;3.65;;
28529;SDS011;15737;49.760;6.632;2023-06-22T07:42:12;4.20;;;3.80;;
28529;SDS011;15737;49.760;6.632;2023-06-22T07:44:37;3.95;;;3.65;;
28529;SDS011;15737;49.760;6.632;2023-06-22T07:47:03;3.42;;;3.13;;
28529;SDS011;15737;49.760;6.632;2023-06-22T07:49:28;4.18;;;3.78;;
28529;SDS011;15737;49.760;6.632;2023-06-22T07:51:54;6.05;;;3.92;;
28529;SDS011;15737;49.760;6.632;2023-06-22T07:54:20;3.92;;;3.20;;
28529;SDS011;15737;49.760;6.632;2023-06-22T07:56:46;3.58;;;3.30;;
28529;SDS011;15737;49.760;6.632;2023-06-22T07:59:11;3.75;;;3.42;;
28529;SDS011;15737;49.760;6.632;2023-06-22T08:01:37;3.60;;;3.30;;
28529;SDS011;15737;49.760;6.632;2023-06-22T08:04:03;4.05;;;3.60;;
28529;SDS011;15737;49.760;6.632;2023-06-22T08:06:29;3.53;;;3.22;;
28529;SDS011;15737;49.760;6.632;2023-06-22T08:08:55;3.78;;;3.30;;
28529;SDS011;15737;49.760;6.632;2023-06-22T08:11:23;3.75;;;3.45;;
28529;SDS011;15737;49.760;6.632;2023-06-22T08:13:54;3.72;;;3.42;;
28529;SDS011;15737;49.760;6.632;2023-06-22T08:16:26;3.58;;;3.28;;
28529;SDS011;15737;49.760;6.632;2023-06-22T08:18:51;3.50;;;3.20;;
28529;SDS011;15737;49.760;6.632;2023-06-22T08:21:17;3.92;;;3.63;;
28529;SDS011;15737;49.760;6.632;2023-06-22T08:23:43;5.00;;;4.03;;
28529;SDS011;15737;49.760;6.632;2023-06-22T08:26:08;3.85;;;3.50;;
28529;SDS011;15737;49.760;6.632;2023-06-22T08:28:34;3.55;;;3.17;;
28529;SDS011;15737;49.760;6.632;2023-06-22T08:30:59;3.83;;;3.40;;
28529;SDS011;15737;49.760;6.632;2023-06-22T08:33:26;3.30;;;3.00;;
28529;SDS011;15737;49.760;6.632;2023-06-22T08:35:53;6.20;;;4.00;;
28529;SDS011;15737;49.760;6.632;2023-06-22T08:38:19;4.15;;;3.58;;
28529;SDS011;15737;49.760;6.632;2023-06-22T08:40:45;3.63;;;3.33;;
28529;SDS011;15737;49.760;6.632;2023-06-22T08:43:10;3.42;;;3.13;;
28529;SDS011;15737;49.760;6.632;2023-06-22T08:45:37;3.13;;;2.83;;
28529;SDS011;15737;49.760;6.632;2023-06-22T08:48:06;3.13;;;2.90;;
28529;SDS011;15737;49.760;6.632;2023-06-22T08:50:31;3.92;;;2.95;;
28529;SDS011;15737;49.760;6.632;2023-06-22T08:52:57;3.83;;;3.33;;
28529;SDS011;15737;49.760;6.632;2023-06-22T08:55:22;4.63;;;3.00;;
28529;SDS011;15737;49.760;6.632;2023-06-22T08:57:48;3.22;;;2.90;;
28529;SDS011;15737;49.760;6.632;2023-06-22T09:00:15;4.85;;;3.28;;
28529;SDS011;15737;49.760;6.632;2023-06-22T09:02:46;3.20;;;2.90;;
28529;SDS011;15737;49.760;6.632;2023-06-22T09:05:28;4.05;;;3.00;;
28529;SDS011;15737;49.760;6.632;2023-06-22T09:08:03;2.20;;;1.92;;
28529;SDS011;15737;49.760;6.632;2023-06-22T09:10:28;1.08;;;1.08;;
28529;SDS011;15737;49.760;6.632;2023-06-22T09:12:54;1.92;;;1.52;;
28529;SDS011;15737;49.760;6.632;2023-06-22T09:15:19;3.47;;;2.28;;
28529;SDS011;15737;49.760;6.632;2023-06-22T09:17:48;3.55;;;3.10;;
28529;SDS011;15737;49.760;6.632;2023-06-22T09:20:26;9.95;;;4.97;;
28529;SDS011;15737;49.760;6.632;2023-06-22T09:22:52;38.63;;;36.45;;
28529;SDS011;15737;49.760;6.632;2023-06-22T09:25:17;7.65;;;7.05;;
28529;SDS011;15737;49.760;6.632;2023-06-22T09:27:45;7.13;;;5.40;;
28529;SDS011;15737;49.760;6.632;2023-06-22T09:30:11;6.43;;;5.93;;
28529;SDS011;15737;49.760;6.632;2023-06-22T09:32:41;5.45;;;4.95;;
28529;SDS011;15737;49.760;6.632;2023-06-22T09:35:18;5.90;;;5.30;;
28529;SDS011;15737;49.760;6.632;2023-06-22T09:37:47;6.68;;;4.57;;
28529;SDS011;15737;49.760;6.632;2023-06-22T09:40:24;4.20;;;3.78;;
28529;SDS011;15737;49.760;6.632;2023-06-22T09:43:03;5.30;;;4.80;;
28529;SDS011;15737;49.760;6.632;2023-06-22T09:45:36;10.27;;;6.22;;
28529;SDS011;15737;49.760;6.632;2023-06-22T09:48:12;6.60;;;5.55;;
28529;SDS011;15737;49.760;6.632;2023-06-22T09:50:56;6.90;;;5.47;;
28529;SDS011;15737;49.760;6.632;2023-06-22T09:53:38;6.72;;;5.07;;
28529;SDS011;15737;49.760;6.632;2023-06-22T09:56:17;6.32;;;5.40;;
28529;SDS011;15737;49.760;6.632;2023-06-22T10:01:29;8.27;;;5.57;;
28529;SDS011;15737;49.760;6.632;2023-06-22T10:04:06;6.82;;;5.43;;
28529;SDS011;15737;49.760;6.632;2023-06-22T10:06:44;6.90;;;5.15;;
28529;SDS011;15737;49.760;6.632;2023-06-22T10:09:24;7.78;;;5.53;;
28529;SDS011;15737;49.760;6.632;2023-06-22T10:11:59;5.55;;;4.97;;
28529;SDS011;15737;49.760;6.632;2023-06-22T10:14:32;5.88;;;5.20;;
28529;SDS011;15737;49.760;6.632;2023-06-22T10:17:10;6.18;;;5.25;;
28529;SDS011;15737;49.760;6.632;2023-06-22T10:19:50;5.90;;;4.75;;
28529;SDS011;15737;49.760;6.632;2023-06-22T10:22:35;11.35;;;10.55;;
28529;SDS011;15737;49.760;6.632;2023-06-22T10:25:13;110.85;;;105.60;;
28529;SDS011;15737;49.760;6.632;2023-06-22T10:27:44;325.73;;;308.48;;
28529;SDS011;15737;49.760;6.632;2023-06-22T10:32:54;6.05;;;5.55;;
28529;SDS011;15737;49.760;6.632;2023-06-22T10:35:30;4.03;;;3.63;;
28529;SDS011;15737;49.760;6.632;2023-06-22T10:38:08;5.88;;;3.70;;
28529;SDS011;15737;49.760;6.632;2023-06-22T10:40:49;4.85;;;3.67;;
28529;SDS011;15737;49.760;6.632;2023-06-22T10:43:22;3.40;;;3.10;;
28529;SDS011;15737;49.760;6.632;2023-06-22T10:45:58;4.85;;;3.92;;
28529;SDS011;15737;49.760;6.632;2023-06-22T10:48:35;4.00;;;3.70;;
28529;SDS011;15737;49.760;6.632;2023-06-22T10:51:09;3.55;;;3.25;;
28529;SDS011;15737;49.760;6.632;2023-06-22T10:53:38;4.10;;;3.67;;
28529;SDS011;15737;49.760;6.632;2023-06-22T10:56:10;4.00;;;3.60;;
28529;SDS011;15737;49.760;6.632;2023-06-22T10:58:45;4.10;;;3.70;;
28529;SDS011;15737;49.760;6.632;2023-06-22T11:01:13;4.43;;;3.85;;
28529;SDS011;15737;49.760;6.632;2023-06-22T11:03:44;3.65;;;3.35;;
28529;SDS011;15737;49.760;6.632;2023-06-22T11:06:20;4.28;;;3.72;;
28529;SDS011;15737;49.760;6.632;2023-06-22T11:08:59;4.43;;;4.03;;
28529;SDS011;15737;49.760;6.632;2023-06-22T11:11:35;4.13;;;3.78;;
28529;SDS011;15737;49.760;6.632;2023-06-22T11:14:12;4.20;;;3.80;;
28529;SDS011;15737;49.760;6.632;2023-06-22T11:16:57;4.00;;;3.58;;
28529;SDS011;15737;49.760;6.632;2023-06-22T11:19:32;4.22;;;3.80;;
28529;SDS011;15737;49.760;6.632;2023-06-22T11:22:13;4.38;;;3.97;;
28529;SDS011;15737;49.760;6.632;2023-06-22T11:24:47;4.38;;;3.97;;
28529;SDS011;15737;49.760;6.632;2023-06-22T11:27:19;4.18;;;3.67;;
28529;SDS011;15737;49.760;6.632;2023-06-22T11:29:55;4.20;;;3.80;;
28529;SDS011;15737;49.760;6.632;2023-06-22T11:32:20;3.90;;;3.45;;
28529;SDS011;15737;49.760;6.632;2023-06-22T11:34:47;4.20;;;3.85;;
28529;SDS011;15737;49.760;6.632;2023-06-22T11:37:25;3.72;;;3.40;;
28529;SDS011;15737;49.760;6.632;2023-06-22T11:39:58;3.75;;;3.45;;
28529;SDS011;15737;49.760;6.632;2023-06-22T11:42:34;3.50;;;3.20;;
28529;SDS011;15737;49.760;6.632;2023-06-22T11:45:13;4.20;;;3.75;;
28529;SDS011;15737;49.760;6.632;2023-06-22T11:47:50;3.70;;;3.38;;
28529;SDS011;15737;49.760;6.632;2023-06-22T11:50:22;5.00;;;4.25;;
28529;SDS011;15737;49.760;6.632;2023-06-22T11:52:47;4.88;;;3.95;;
28529;SDS011;15737;49.760;6.632;2023-06-22T11:55:13;4.72;;;3.97;;
28529;SDS011;15737;49.760;6.632;2023-06-22T11:57:51;4.93;;;4.50;;
28529;SDS011;15737;49.760;6.632;2023-06-22T12:00:22;5.10;;;4.55;;
28529;SDS011;15737;49.760;6.632;2023-06-22T12:02:56;5.13;;;3.83;;
28529;SDS011;15737;49.760;6.632;2023-06-22T12:05:36;5.80;;;4.55;;
28529;SDS011;15737;49.760;6.632;2023-06-22T12:08:12;4.88;;;4.47;;
28529;SDS011;15737;49.760;6.632;2023-06-22T12:10:51;4.68;;;4.22;;
28529;SDS011;15737;49.760;6.632;2023-06-22T12:13:35;4.63;;;4.22;;
28529;SDS011;15737;49.760;6.632;2023-06-22T12:16:14;4.60;;;4.20;;
28529;SDS011;15737;49.760;6.632;2023-06-22T12:18:54;5.00;;;4.60;;
28529;SDS011;15737;49.760;6.632;2023-06-22T12:21:26;6.10;;;4.60;;
28529;SDS011;15737;49.760;6.632;2023-06-22T12:23:53;4.80;;;4.30;;
28529;SDS011;15737;49.760;6.632;2023-06-22T12:26:21;5.38;;;4.88;;
28529;SDS011;15737;49.760;6.632;2023-06-22T12:28:54;5.00;;;4.50;;
28529;SDS011;15737;49.760;6.632;2023-06-22T12:31:35;4.72;;;4.38;;
28529;SDS011;15737;49.760;6.632;2023-06-22T12:34:04;4.72;;;4.32;;
28529;SDS011;15737;49.760;6.632;2023-06-22T12:36:37;4.93;;;4.53;;
28529;SDS011;15737;49.760;6.632;2023-06-22T12:39:06;5.22;;;4.82;;
28529;SDS011;15737;49.760;6.632;2023-06-22T12:41:37;4.53;;;4.13;;
28529;SDS011;15737;49.760;6.632;2023-06-22T12:44:14;5.90;;;4.45;;
28529;SDS011;15737;49.760;6.632;2023-06-22T12:46:51;4.70;;;4.30;;
28529;SDS011;15737;49.760;6.632;2023-06-22T12:49:27;4.85;;;4.25;;
28529;SDS011;15737;49.760;6.632;2023-06-22T12:52:00;4.85;;;3.90;;
28529;SDS011;15737;49.760;6.632;2023-06-22T12:54:33;4.60;;;4.10;;
28529;SDS011;15737;49.760;6.632;2023-06-22T12:57:10;3.80;;;3.50;;
28529;SDS011;15737;49.760;6.632;2023-06-22T12:59:46;3.78;;;3.47;;
28529;SDS011;15737;49.760;6.632;2023-06-22T13:02:20;6.90;;;4.60;;
28529;SDS011;15737;49.760;6.632;2023-06-22T13:04:51;4.18;;;3.72;;
28529;SDS011;15737;49.760;6.632;2023-06-22T13:07:29;3.53;;;3.22;;
28529;SDS011;15737;49.760;6.632;2023-06-22T13:10:04;3.88;;;3.58;;
28529;SDS011;15737;49.760;6.632;2023-06-22T13:12:39;4.28;;;3.88;;
28529;SDS011;15737;49.760;6.632;2023-06-22T13:15:05;4.60;;;3.42;;
28529;SDS011;15737;49.760;6.632;2023-06-22T13:17:32;6.90;;;4.53;;
28529;SDS011;15737;49.760;6.632;2023-06-22T13:20:06;3.72;;;3.42;;
28529;SDS011;15737;49.760;6.632;2023-06-22T13:22:32;4.88;;;3.15;;
28529;SDS011;15737;49.760;6.632;2023-06-22T13:25:04;4.00;;;3.28;;
28529;SDS011;15737;49.760;6.632;2023-06-22T13:27:31;2.40;;;2.03;;
28529;SDS011;15737;49.760;6.632;2023-06-22T13:29:57;4.15;;;2.88;;
28529;SDS011;15737;49.760;6.632;2023-06-22T13:32:22;2.38;;;1.95;;
28529;SDS011;15737;49.760;6.632;2023-06-22T13:34:48;2.17;;;1.50;;
28529;SDS011;15737;49.760;6.632;2023-06-22T13:37:14;4.30;;;2.53;;
28529;SDS011;15737;49.760;6.632;2023-06-22T13:39:39;187.43;;;175.18;;
28529;SDS011;15737;49.760;6.632;2023-06-22T13:42:05;98.40;;;93.82;;
28529;SDS011;15737;49.760;6.632;2023-06-22T13:44:30;81.05;;;77.38;;
28529;SDS011;15737;49.760;6.632;2023-06-22T13:46:56;46.33;;;43.92;;
28529;SDS011;15737;49.760;6.632;2023-06-22T13:49:22;12.63;;;11.88;;
28529;SDS011;15737;49.760;6.632;2023-06-22T13:51:47;5.88;;;5.38;;
28529;SDS011;15737;49.760;6.632;2023-06-22T13:54:13;3.67;;;3.47;;
28529;SDS011;15737;49.760;6.632;2023-06-22T13:56:41;4.30;;;3.42;;
28529;SDS011;15737;49.760;6.632;2023-06-22T13:59:21;3.08;;;2.58;;
28529;SDS011;15737;49.760;6.632;2023-06-22T14:01:47;2.83;;;1.83;;
28529;SDS011;15737;49.760;6.632;2023-06-22T14:04:12;5.68;;;1.98;;
28529;SDS011;15737;49.760;6.632;2023-06-22T14:06:38;3.05;;;2.33;;
28529;SDS011;15737;49.760;6.632;2023-06-22T14:09:03;3.63;;;2.33;;
28529;SDS011;15737;49.760;6.632;2023-06-22T14:11:29;1.77;;;1.58;;
28529;SDS011;15737;49.760;6.632;2023-06-22T14:13:54;2.10;;;1.63;;
28529;SDS011;15737;49.760;6.632;2023-06-22T14:16:20;6.30;;;1.90;;
28529;SDS011;15737;49.760;6.632;2023-06-22T14:18:45;6.57;;;1.83;;
28529;SDS011;15737;49.760;6.632;2023-06-22T14:21:11;1.45;;;1.35;;
28529;SDS011;15737;49.760;6.632;2023-06-22T14:23:37;2.15;;;1.80;;
28529;SDS011;15737;49.760;6.632;2023-06-22T14:26:03;5.15;;;2.20;;
28529;SDS011;15737;49.760;6.632;2023-06-22T14:28:28;2.10;;;1.48;;
28529;SDS011;15737;49.760;6.632;2023-06-22T14:30:55;1.98;;;1.65;;
28529;SDS011;15737;49.760;6.632;2023-06-22T14:33:28;3.17;;;1.90;;
28529;SDS011;15737;49.760;6.632;2023-06-22T14:35:54;1.83;;;1.02;;
28529;SDS011;15737;49.760;6.632;2023-06-22T14:38:19;2.17;;;1.25;;
28529;SDS011;15737;49.760;6.632;2023-06-22T14:40:46;1.20;;;1.10;;
28529;SDS011;15737;49.760;6.632;2023-06-22T14:43:11;1.60;;;1.13;;
28529;SDS011;15737;49.760;6.632;2023-06-22T14:45:37;82.78;;;79.18;;
28529;SDS011;15737;49.760;6.632;2023-06-22T14:48:02;3.08;;;2.97;;
28529;SDS011;15737;49.760;6.632;2023-06-22T14:50:28;3.78;;;3.47;;
28529;SDS011;15737;49.760;6.632;2023-06-22T14:52:53;9.40;;;8.82;;
28529;SDS011;15737;49.760;6.632;2023-06-22T14:55:21;42.95;;;41.05;;
28529;SDS011;15737;49.760;6.632;2023-06-22T14:58:01;64.50;;;61.60;;
28529;SDS011;15737;49.760;6.632;2023-06-22T15:00:43;71.93;;;68.72;;
28529;SDS011;15737;49.760;6.632;2023-06-22T15:03:22;227.82;;;217.05;;
28529;SDS011;15737;49.760;6.632;2023-06-22T15:05:54;257.77;;;243.90;;
28529;SDS011;15737;49.760;6.632;2023-06-22T15:08:20;303.88;;;286.50;;
28529;SDS011;15737;49.760;6.632;2023-06-22T15:10:46;195.25;;;184.70;;
28529;SDS011;15737;49.760;6.632;2023-06-22T15:13:11;46.28;;;43.95;;